createdAt,value
2022-08-11T00:01:28.442Z,4.10
2022-08-11T00:03:57.750Z,4.83
2022-08-11T00:06:30.486Z,5.50
2022-08-11T00:09:02.058Z,4.20
2022-08-11T00:12:00.546Z,4.17
2022-08-11T00:14:40.305Z,4.33
2022-08-11T00:17:09.310Z,4.33
2022-08-11T00:20:12.111Z,4.33
2022-08-11T00:22:41.936Z,4.70
2022-08-11T00:25:20.530Z,4.30
2022-08-11T00:28:09.800Z,5.67
2022-08-11T00:30:44.659Z,5.73
2022-08-11T00:33:13.873Z,5.37
2022-08-11T00:35:54.979Z,4.90
2022-08-11T00:38:32.266Z,5.00
2022-08-11T00:41:02.538Z,5.17
2022-08-11T00:43:43.150Z,5.73
2022-08-11T00:46:14.504Z,4.90
2022-08-11T00:48:51.231Z,5.57
2022-08-11T00:51:21.605Z,5.60
2022-08-11T00:54:10.143Z,4.60
2022-08-11T00:56:43.842Z,4.70
2022-08-11T00:59:32.212Z,4.83
2022-08-11T01:02:07.151Z,4.40
2022-08-11T01:04:55.900Z,4.60
2022-08-11T01:08:02.366Z,5.37
2022-08-11T01:10:35.322Z,4.63
2022-08-11T01:13:21.772Z,4.80
2022-08-11T01:16:04.109Z,4.50
2022-08-11T01:18:52.214Z,4.30
2022-08-11T01:21:19.950Z,5.10
2022-08-11T01:24:03.985Z,5.23
2022-08-11T01:27:31.281Z,4.23
2022-08-11T01:30:19.790Z,4.03
2022-08-11T01:33:08.716Z,5.80
2022-08-11T01:35:45.478Z,4.13
2022-08-11T01:38:39.018Z,5.13
2022-08-11T01:41:26.952Z,4.50
2022-08-11T01:47:54.391Z,3.80
2022-08-11T01:50:21.858Z,5.47
2022-08-11T01:52:55.273Z,3.60
2022-08-11T01:55:27.016Z,3.60
2022-08-11T01:58:03.154Z,4.90
2022-08-11T02:00:33.011Z,4.50
2022-08-11T02:03:23.153Z,4.40
2022-08-11T02:05:52.218Z,4.40
2022-08-11T02:08:33.271Z,4.67
2022-08-11T02:11:35.293Z,5.20
2022-08-11T02:14:26.834Z,4.50
2022-08-11T02:17:06.952Z,5.20
2022-08-11T02:19:58.866Z,5.30
2022-08-11T02:22:45.113Z,4.67
2022-08-11T02:25:21.654Z,6.43
2022-08-11T02:27:51.753Z,6.00
2022-08-11T02:30:26.166Z,5.37
2022-08-11T02:33:11.890Z,5.10
2022-08-11T02:35:45.852Z,5.37
2022-08-11T02:38:34.711Z,5.27
2022-08-11T02:41:25.969Z,5.60
2022-08-11T02:43:59.195Z,4.97
2022-08-11T02:46:30.617Z,5.67
2022-08-11T02:49:16.346Z,4.43
2022-08-11T02:52:06.527Z,6.10
2022-08-11T02:54:44.842Z,5.47
2022-08-11T02:57:17.856Z,6.30
2022-08-11T02:59:53.225Z,5.90
2022-08-11T03:02:41.478Z,5.80
2022-08-11T03:05:21.247Z,6.90
2022-08-11T03:08:19.526Z,6.60
2022-08-11T03:11:25.944Z,5.37
2022-08-11T03:14:13.558Z,5.50
2022-08-11T03:16:52.701Z,6.10
2022-08-11T03:23:19.753Z,5.63
2022-08-11T03:26:33.728Z,5.87
2022-08-11T03:29:25.186Z,5.93
2022-08-11T03:32:04.260Z,6.30
2022-08-11T03:34:38.207Z,6.43
2022-08-11T03:37:44.367Z,6.93
2022-08-11T03:40:49.116Z,7.23
2022-08-11T03:43:22.666Z,6.80
2022-08-11T03:46:04.682Z,8.30
2022-08-11T03:48:31.744Z,6.90
2022-08-11T03:51:18.047Z,6.67
2022-08-11T03:54:03.601Z,5.53
2022-08-11T03:57:17.525Z,6.23
2022-08-11T04:00:02.217Z,6.70
2022-08-11T04:02:59.931Z,6.37
2022-08-11T04:05:41.680Z,6.33
2022-08-11T04:08:38.654Z,6.77
2022-08-11T04:11:34.423Z,5.73
2022-08-11T04:14:52.237Z,6.30
2022-08-11T04:17:40.871Z,6.50
2022-08-11T04:20:31.976Z,6.80
2022-08-11T04:23:03.696Z,5.90
2022-08-11T04:30:02.944Z,6.80
2022-08-11T04:32:54.403Z,8.40
2022-08-11T04:35:28.267Z,7.30
2022-08-11T04:38:13.438Z,6.00
2022-08-11T04:41:04.394Z,7.67
2022-08-11T04:44:02.851Z,7.00
2022-08-11T04:46:42.671Z,7.20
2022-08-11T04:49:47.498Z,7.00
2022-08-11T04:52:39.681Z,7.23
2022-08-11T04:55:47.320Z,8.50
2022-08-11T04:58:52.854Z,7.50
2022-08-11T11:11:24.171Z,2.53
2022-08-11T11:14:13.025Z,4.30
2022-08-11T11:16:52.304Z,8.77
2022-08-11T11:47:49.254Z,1.80
2022-08-11T11:54:08.398Z,2.30
2022-08-11T11:57:24.513Z,1.90
2022-08-11T12:00:21.821Z,2.40
2022-08-11T12:03:08.910Z,2.50
2022-08-11T12:10:57.879Z,2.10
2022-08-11T14:06:43.390Z,2.03
2022-08-11T15:05:55.747Z,2.13
2022-08-11T15:15:28.170Z,2.30
2022-08-11T16:16:02.944Z,2.10
2022-08-11T16:18:40.872Z,2.37
2022-08-11T16:21:33.481Z,2.40
2022-08-11T16:25:58.092Z,2.10
2022-08-11T16:27:11.492Z,2.07
2022-08-11T16:29:44.367Z,2.47
2022-08-11T16:32:17.274Z,2.90
2022-08-11T16:35:04.285Z,2.27
2022-08-11T16:37:51.642Z,2.97
2022-08-11T16:40:22.632Z,2.77
2022-08-11T16:43:11.018Z,2.80
2022-08-11T16:45:58.617Z,2.90
2022-08-11T16:48:35.283Z,2.23
2022-08-11T16:51:04.722Z,3.87
2022-08-11T16:53:59.394Z,2.40
2022-08-11T16:56:20.944Z,3.20
2022-08-11T16:59:15.850Z,3.57
2022-08-11T17:01:43.180Z,3.73
2022-08-11T17:04:34.823Z,2.80
2022-08-11T17:07:23.761Z,2.83
2022-08-11T17:10:39.688Z,2.83
2022-08-11T17:13:18.446Z,3.33
2022-08-11T17:16:19.935Z,3.40
2022-08-11T17:19:04.843Z,4.50
2022-08-11T17:21:34.044Z,3.83
2022-08-11T17:24:08.553Z,3.77
2022-08-11T17:26:57.651Z,3.90
2022-08-11T17:29:25.118Z,2.83
2022-08-11T17:32:11.223Z,4.03
2022-08-11T17:34:58.425Z,3.10
2022-08-11T17:37:26.073Z,3.60
2022-08-11T17:39:54.111Z,3.63
2022-08-11T17:42:40.241Z,3.67
2022-08-11T17:45:27.385Z,3.30
2022-08-11T17:48:13.392Z,3.07
2022-08-11T17:50:41.434Z,4.00
2022-08-11T17:53:26.900Z,3.80
2022-08-11T17:56:13.221Z,3.17
2022-08-11T17:58:59.343Z,3.47
2022-08-11T18:01:26.940Z,2.70
2022-08-11T18:03:58.437Z,3.50
2022-08-11T18:06:34.562Z,3.33
2022-08-11T18:09:22.529Z,4.07
2022-08-11T18:12:11.993Z,3.07
2022-08-11T18:14:58.704Z,3.43
2022-08-11T18:17:44.615Z,3.80
2022-08-11T18:20:30.227Z,3.50
2022-08-11T18:23:16.782Z,3.33
2022-08-11T18:26:07.044Z,3.37
2022-08-11T18:29:03.630Z,3.77
2022-08-11T18:31:50.990Z,3.60
2022-08-11T18:34:38.999Z,3.77
2022-08-11T18:37:31.857Z,4.10
2022-08-11T18:40:18.775Z,4.03
2022-08-11T18:43:05.654Z,3.50
2022-08-11T18:46:06.193Z,3.80
2022-08-11T18:48:55.129Z,3.90
2022-08-11T18:51:41.482Z,3.70
2022-08-11T18:54:29.035Z,4.70
2022-08-11T18:57:16.600Z,4.07
2022-08-11T19:00:04.105Z,3.57
2022-08-11T19:02:51.254Z,3.80
2022-08-11T19:06:06.051Z,4.97
2022-08-11T19:08:46.440Z,4.13
2022-08-11T19:11:31.844Z,4.10
2022-08-11T19:14:19.143Z,3.73
2022-08-11T19:17:04.768Z,4.00
2022-08-11T19:19:51.252Z,4.50
2022-08-11T19:22:36.643Z,4.50
2022-08-11T19:25:25.560Z,4.77
2022-08-11T19:28:12.974Z,4.57
2022-08-11T19:30:58.500Z,5.03
2022-08-11T19:34:00.179Z,6.33
2022-08-11T19:36:48.628Z,4.40
2022-08-11T19:39:34.236Z,4.47
2022-08-11T19:42:20.865Z,4.67
2022-08-11T19:45:06.767Z,4.33
2022-08-11T19:48:03.379Z,4.63
2022-08-11T19:50:59.264Z,4.73
2022-08-11T19:53:47.957Z,5.20
2022-08-11T19:56:34.231Z,5.30
2022-08-11T19:59:20.234Z,6.10
2022-08-11T20:02:13.294Z,5.90
2022-08-11T20:05:00.562Z,5.23
2022-08-11T20:07:46.347Z,6.00
2022-08-11T20:10:33.521Z,5.53
2022-08-11T20:13:21.764Z,5.37
2022-08-11T20:16:07.480Z,5.20
2022-08-11T20:18:53.961Z,5.40
2022-08-11T20:21:40.070Z,5.50
2022-08-11T20:24:25.957Z,5.93
2022-08-11T20:27:18.614Z,5.73
2022-08-11T20:30:10.878Z,5.13
2022-08-11T20:32:56.877Z,5.60
2022-08-11T20:35:42.301Z,5.70
2022-08-11T20:38:28.329Z,6.90
2022-08-11T20:41:16.047Z,5.43
2022-08-11T20:44:06.738Z,6.07
2022-08-11T20:46:57.007Z,5.70
2022-08-11T20:49:50.369Z,5.70
2022-08-11T20:52:40.371Z,5.67
2022-08-11T20:55:52.315Z,6.40
2022-08-11T20:58:54.835Z,6.50
2022-08-11T21:01:42.150Z,5.87
2022-08-11T21:04:27.874Z,6.83
2022-08-11T21:07:18.547Z,5.77
2022-08-11T21:10:22.727Z,6.37
2022-08-11T21:13:25.706Z,7.20
2022-08-11T21:16:25.144Z,6.57
2022-08-11T21:20:00.306Z,6.53
2022-08-11T21:22:40.550Z,6.57
2022-08-11T21:25:46.076Z,5.90
2022-08-11T21:28:32.067Z,7.87
2022-08-11T21:31:19.602Z,6.00
2022-08-11T21:34:05.547Z,8.60
2022-08-11T21:36:50.928Z,6.60
2022-08-11T21:39:38.465Z,6.73
2022-08-11T21:42:24.532Z,6.23
2022-08-11T21:45:10.427Z,6.40
2022-08-11T21:48:01.325Z,6.70
2022-08-11T21:50:46.814Z,6.33
2022-08-11T21:53:32.789Z,5.67
2022-08-11T21:56:19.300Z,6.47
2022-08-11T21:59:07.194Z,5.50
2022-08-11T22:01:53.600Z,6.00
2022-08-11T22:04:39.525Z,6.43
2022-08-11T22:07:25.396Z,6.13
2022-08-11T22:10:27.325Z,6.03
2022-08-11T22:13:15.888Z,8.53
2022-08-11T22:16:01.336Z,8.70
2022-08-11T22:18:47.202Z,7.43
2022-08-11T22:22:02.413Z,7.40
2022-08-11T22:24:42.033Z,6.73
2022-08-11T22:27:28.692Z,6.87
2022-08-11T22:30:13.989Z,6.30
2022-08-11T22:32:59.524Z,6.30
2022-08-11T22:35:45.663Z,6.63
2022-08-11T22:38:31.035Z,7.00
2022-08-11T22:41:16.244Z,6.37
2022-08-11T22:44:01.625Z,6.23
2022-08-11T22:46:48.020Z,5.70
2022-08-11T22:49:42.448Z,6.10
2022-08-11T22:52:40.615Z,7.40
2022-08-11T22:55:27.076Z,7.30
2022-08-11T22:58:12.925Z,7.40
2022-08-11T23:00:58.767Z,6.67
2022-08-11T23:03:44.235Z,9.00
2022-08-11T23:06:30.185Z,8.50
2022-08-11T23:09:15.999Z,7.40
2022-08-11T23:12:06.782Z,7.93
2022-08-11T23:14:55.904Z,8.30
2022-08-11T23:17:41.266Z,8.27
2022-08-11T23:20:34.495Z,8.63
2022-08-11T23:23:21.852Z,7.93
2022-08-11T23:26:10.301Z,7.60
2022-08-11T23:28:55.631Z,8.70
2022-08-11T23:31:50.716Z,8.13
2022-08-11T23:35:04.644Z,8.53
2022-08-11T23:37:47.798Z,7.00
2022-08-11T23:40:33.083Z,7.57
2022-08-11T23:43:18.812Z,6.00
2022-08-11T23:46:04.229Z,6.63
2022-08-11T23:48:49.433Z,7.83
2022-08-11T23:51:40.464Z,6.80
2022-08-11T23:54:27.318Z,8.00
2022-08-11T23:57:13.076Z,8.23
2022-08-11T23:59:58.441Z,7.10
